Adams City, Colorado
Current Conditions -  °F | °C
As of 9:53 AM on Tuesday 27 Jan 2015 (Local Time) from KDEN Reporting Station
Broken Clouds Broken Clouds  
Wind Chill: 60°   Ceiling: 25000
Heat Index: 60°   Visibility: 10mi
Dew Point: 23°   Wind: 14mph
Humidity: 24%   Direction: 230°SW
Pressure: 30.15"   Gusts: NA
Location:  39.8641°N, 104.821°W
Report Text: KDEN 271653Z 23012KT 10SM SCT200 BKN250 16/M05 A3015 RMK AO2 SLP163 T01561050
Loading
Personal Weather Stations






























Interactive Weather Map New forecast layout! Learn more

10-Day Weather Forecast

Advertisements
Track Severe Weather on mobile